Time;durP1;ratioP1;P1;durP2;ratioP2;P2;SDS_P1;SDS_P2;PMS_P1;PMS_P2;Temp;Humidity;BMP_temperature;BMP_pressure;BME280_temperature;BME280_humidity;BME280_pressure;Samples;Min_cycle;Max_cycle;Signal;HPM_P1;HPM_P2
2021/08/16 00:02:00;;;;;;;7.90;7.25;;;27.10;99.90;;;;;;5008710;28;20056;-69
2021/08/16 00:04:25;;;;;;;10.75;7.78;;;27.00;99.90;;;;;;5010556;28;20033;-69
2021/08/16 00:06:51;;;;;;;9.43;7.63;;;27.00;99.90;;;;;;5013731;28;20026;-70
2021/08/16 00:09:17;;;;;;;7.47;6.88;;;27.10;99.90;;;;;;5012082;28;20060;-69
2021/08/16 00:11:43;;;;;;;10.80;7.70;;;27.20;99.90;;;;;;5013957;28;20064;-70
2021/08/16 00:14:08;;;;;;;8.68;6.68;;;27.20;99.90;;;;;;5012289;28;20034;-70
2021/08/16 00:16:34;;;;;;;10.82;8.45;;;27.10;99.90;;;;;;5012125;28;20036;-69
2021/08/16 00:19:00;;;;;;;13.68;8.02;;;27.10;99.90;;;;;;5013153;28;20396;-69
2021/08/16 00:21:26;;;;;;;10.77;8.80;;;27.10;99.90;;;;;;5012096;28;20069;-69
2021/08/16 00:23:53;;;;;;;13.23;8.57;;;27.10;99.90;;;;;;5011884;28;20037;-68
2021/08/16 00:26:18;;;;;;;13.13;7.78;;;27.10;99.90;;;;;;5013640;28;20049;-68
2021/08/16 00:28:44;;;;;;;8.23;7.38;;;27.10;99.90;;;;;;5012860;28;20484;-69
2021/08/16 00:31:10;;;;;;;8.82;8.02;;;27.10;99.90;;;;;;5013412;28;20026;-70
2021/08/16 00:33:36;;;;;;;9.25;7.88;;;27.10;99.90;;;;;;5011831;28;20088;-69
2021/08/16 00:36:03;;;;;;;8.70;7.75;;;27.10;99.90;;;;;;5013366;28;20018;-70
2021/08/16 00:38:29;;;;;;;14.57;8.38;;;27.20;99.90;;;;;;5011608;28;20037;-70
2021/08/16 00:40:54;;;;;;;9.02;8.18;;;27.20;99.90;;;;;;5011624;28;20033;-70
2021/08/16 00:43:20;;;;;;;10.38;9.27;;;27.30;99.90;;;;;;5012950;28;20033;-70
2021/08/16 00:45:46;;;;;;;12.25;8.43;;;27.20;99.90;;;;;;5012715;28;20034;-69
2021/08/16 00:48:13;;;;;;;9.25;7.47;;;27.20;99.90;;;;;;5012632;28;20088;-69
2021/08/16 00:50:39;;;;;;;8.07;7.35;;;27.30;99.90;;;;;;5012662;28;20029;-69
2021/08/16 00:53:05;;;;;;;8.30;7.40;;;27.20;99.90;;;;;;5012730;28;20498;-69
2021/08/16 00:55:32;;;;;;;12.73;7.40;;;27.20;99.90;;;;;;5012752;28;20033;-70
2021/08/16 00:58:00;;;;;;;8.13;7.38;;;27.20;99.90;;;;;;5011226;28;20452;-70
2021/08/16 01:00:26;;;;;;;8.23;7.00;;;27.20;99.90;;;;;;5013457;28;20097;-70
2021/08/16 01:02:52;;;;;;;9.50;6.53;;;27.20;99.90;;;;;;5011674;28;20484;-69
2021/08/16 01:05:18;;;;;;;14.13;6.13;;;27.30;99.90;;;;;;5011413;28;20489;-69
2021/08/16 01:07:45;;;;;;;11.65;7.13;;;27.30;99.90;;;;;;5012226;28;20026;-69
2021/08/16 01:10:11;;;;;;;7.78;6.95;;;27.30;99.90;;;;;;5012334;28;20044;-69
2021/08/16 01:12:37;;;;;;;7.88;6.63;;;27.30;99.90;;;;;;5011104;28;20033;-69
2021/08/16 01:15:07;;;;;;;7.18;6.47;;;27.30;99.90;;;;;;5012764;28;20532;-69
2021/08/16 01:17:34;;;;;;;8.23;7.53;;;27.30;99.90;;;;;;5012222;28;20030;-69
2021/08/16 01:20:02;;;;;;;8.18;7.07;;;27.30;99.90;;;;;;5011220;28;20037;-69
2021/08/16 01:22:28;;;;;;;10.43;7.18;;;27.30;99.90;;;;;;5010887;28;20037;-70
2021/08/16 01:24:54;;;;;;;7.10;6.40;;;27.30;99.90;;;;;;5010995;28;20427;-69
2021/08/16 01:27:19;;;;;;;9.30;7.18;;;27.20;99.90;;;;;;5012214;28;20045;-70
2021/08/16 01:29:45;;;;;;;10.95;8.02;;;27.20;99.90;;;;;;5011835;28;20029;-70
2021/08/16 01:32:12;;;;;;;8.98;6.68;;;27.30;99.90;;;;;;5011970;28;20053;-69
2021/08/16 01:34:38;;;;;;;7.20;6.50;;;27.40;99.90;;;;;;5012181;28;20436;-70
2021/08/16 01:37:04;;;;;;;7.40;6.70;;;27.40;99.90;;;;;;5010584;28;20727;-70
2021/08/16 01:39:29;;;;;;;8.20;6.75;;;27.40;99.90;;;;;;5010512;28;20034;-69
2021/08/16 01:41:55;;;;;;;10.98;6.40;;;27.40;99.90;;;;;;5012028;28;20392;-70
2021/08/16 01:44:22;;;;;;;6.88;6.22;;;27.40;99.90;;;;;;5011932;28;20106;-69
2021/08/16 01:46:49;;;;;;;10.98;6.55;;;27.30;99.90;;;;;;5011901;28;20018;-69
2021/08/16 01:49:15;;;;;;;9.60;7.63;;;27.30;99.90;;;;;;5012107;28;20435;-69
2021/08/16 01:51:43;;;;;;;6.35;5.75;;;27.30;99.90;;;;;;5013888;28;20026;-69
2021/08/16 01:54:11;;;;;;;8.13;7.32;;;27.30;99.90;;;;;;5012707;28;20021;-70
2021/08/16 01:56:38;;;;;;;14.10;8.15;;;27.30;99.90;;;;;;5011477;28;20480;-68
2021/08/16 01:59:04;;;;;;;12.45;7.72;;;27.30;99.90;;;;;;5010235;28;20026;-69
2021/08/16 02:01:30;;;;;;;8.48;7.50;;;27.30;99.90;;;;;;5011700;28;20089;-69
2021/08/16 02:03:56;;;;;;;8.63;7.43;;;27.40;99.90;;;;;;5011647;28;20539;-69
2021/08/16 02:06:22;;;;;;;9.57;6.22;;;27.40;99.90;;;;;;5009938;28;20061;-69
2021/08/16 02:08:48;;;;;;;11.27;7.32;;;27.40;99.90;;;;;;5011040;28;20032;-69
2021/08/16 02:11:15;;;;;;;7.63;6.78;;;27.40;99.90;;;;;;5010171;28;20018;-69
2021/08/16 02:13:40;;;;;;;7.97;7.15;;;27.50;99.90;;;;;;5009889;28;20033;-69
2021/08/16 02:16:06;;;;;;;13.98;6.82;;;27.60;99.90;;;;;;5009870;28;20037;-68
2021/08/16 02:18:32;;;;;;;10.75;6.68;;;27.50;99.90;;;;;;5009723;28;20025;-68
2021/08/16 02:20:58;;;;;;;11.57;7.03;;;27.50;99.90;;;;;;5009790;28;20046;-68
2021/08/16 02:23:25;;;;;;;7.88;6.82;;;27.50;99.90;;;;;;5009994;28;20169;-69
2021/08/16 02:25:51;;;;;;;11.00;6.72;;;27.40;99.90;;;;;;5011427;28;20050;-70
2021/08/16 02:28:17;;;;;;;12.00;6.55;;;27.50;99.90;;;;;;5008773;28;20252;-69
2021/08/16 02:30:44;;;;;;;7.93;6.45;;;27.40;99.90;;;;;;5011592;28;20022;-69
2021/08/16 02:33:11;;;;;;;7.97;6.50;;;27.40;99.90;;;;;;5010093;28;20030;-70
2021/08/16 02:35:37;;;;;;;7.22;6.22;;;27.40;99.90;;;;;;5010056;28;20033;-69
2021/08/16 02:38:03;;;;;;;11.23;5.97;;;27.40;99.90;;;;;;5009611;28;20121;-69
2021/08/16 02:40:29;;;;;;;7.95;5.95;;;27.40;99.90;;;;;;5010609;28;20117;-69
2021/08/16 02:42:55;;;;;;;11.38;6.43;;;27.40;99.90;;;;;;5009854;28;20437;-68
2021/08/16 02:45:21;;;;;;;7.85;6.25;;;27.40;99.90;;;;;;5011181;28;20557;-70
2021/08/16 02:47:47;;;;;;;11.05;6.97;;;27.30;99.90;;;;;;5010915;28;20387;-69
2021/08/16 02:50:13;;;;;;;6.63;6.03;;;27.30;99.90;;;;;;5011172;28;20500;-70
2021/08/16 02:52:38;;;;;;;9.43;6.47;;;27.40;99.90;;;;;;5010064;28;20097;-69
2021/08/16 02:55:05;;;;;;;7.35;5.70;;;27.40;99.90;;;;;;5011340;28;20049;-69
2021/08/16 02:57:30;;;;;;;7.18;6.00;;;27.40;99.90;;;;;;5009399;28;20030;-69
2021/08/16 02:59:56;;;;;;;6.50;5.90;;;27.40;99.90;;;;;;5011540;28;20071;-69
2021/08/16 03:02:22;;;;;;;16.05;6.35;;;27.40;99.90;;;;;;5012275;28;20300;-69
2021/08/16 03:04:49;;;;;;;7.80;7.10;;;27.40;99.90;;;;;;5010680;28;20029;-70
2021/08/16 03:07:15;;;;;;;7.55;6.57;;;27.30;99.90;;;;;;5011486;28;20033;-70
2021/08/16 03:09:41;;;;;;;9.57;6.20;;;27.20;99.90;;;;;;5009773;28;20057;-68
2021/08/16 03:12:07;;;;;;;6.53;5.93;;;27.20;99.90;;;;;;5010551;28;20029;-69
2021/08/16 03:14:33;;;;;;;7.65;6.88;;;27.20;99.90;;;;;;5009376;28;20030;-70
2021/08/16 03:16:59;;;;;;;10.52;6.72;;;27.20;99.90;;;;;;5009241;28;20022;-70
2021/08/16 03:19:26;;;;;;;6.68;6.07;;;27.10;99.90;;;;;;5010531;28;20107;-70
2021/08/16 03:21:51;;;;;;;6.40;5.82;;;27.10;99.90;;;;;;5009081;28;20184;-71
2021/08/16 03:24:18;;;;;;;9.23;6.75;;;27.10;99.90;;;;;;5010897;28;20543;-69
2021/08/16 03:26:44;;;;;;;8.18;7.32;;;27.10;99.90;;;;;;5010932;28;20036;-69
2021/08/16 03:29:10;;;;;;;8.77;7.20;;;27.10;99.90;;;;;;5010148;28;20033;-68
2021/08/16 03:31:36;;;;;;;8.48;6.35;;;27.00;99.90;;;;;;5010458;28;20021;-68
2021/08/16 03:34:02;;;;;;;11.77;7.60;;;27.00;99.90;;;;;;5010479;28;20030;-70
2021/08/16 03:36:28;;;;;;;9.98;6.78;;;27.00;99.90;;;;;;5010389;28;20048;-69
2021/08/16 03:38:53;;;;;;;6.93;6.32;;;27.00;99.90;;;;;;5010146;28;20034;-70
2021/08/16 03:41:19;;;;;;;7.32;5.85;;;27.00;99.90;;;;;;5012102;28;20076;-69
2021/08/16 03:43:45;;;;;;;11.18;7.13;;;27.00;99.90;;;;;;5013977;28;20030;-69
2021/08/16 03:46:11;;;;;;;10.05;7.18;;;26.90;99.90;;;;;;5014146;28;20118;-68
2021/08/16 03:48:37;;;;;;;8.85;6.47;;;26.90;99.90;;;;;;5012268;28;20259;-68
2021/08/16 03:51:03;;;;;;;10.75;6.50;;;26.90;99.90;;;;;;5013991;28;20033;-69
2021/08/16 03:53:29;;;;;;;10.65;7.30;;;26.80;99.90;;;;;;5012635;28;20392;-71
2021/08/16 03:55:55;;;;;;;10.80;6.97;;;26.70;99.90;;;;;;5014217;28;20058;-68
2021/08/16 03:58:21;;;;;;;12.57;7.47;;;26.70;99.90;;;;;;5012550;28;20054;-70
2021/08/16 04:00:48;;;;;;;7.60;6.68;;;26.70;99.90;;;;;;5014269;28;20475;-69
2021/08/16 04:03:13;;;;;;;7.40;6.50;;;26.80;99.90;;;;;;5014161;28;20510;-69
2021/08/16 04:05:40;;;;;;;7.72;7.03;;;26.80;99.90;;;;;;5014510;28;20181;-70
2021/08/16 04:08:06;;;;;;;10.45;6.97;;;26.70;99.90;;;;;;5011961;28;20026;-69
2021/08/16 04:10:32;;;;;;;9.25;7.43;;;26.80;99.90;;;;;;5012380;28;20025;-71
2021/08/16 04:12:58;;;;;;;9.60;6.97;;;26.80;99.90;;;;;;5014101;28;20076;-70
2021/08/16 04:15:23;;;;;;;10.68;7.07;;;26.80;99.90;;;;;;5013795;28;20384;-69
2021/08/16 04:17:50;;;;;;;11.98;7.40;;;26.80;99.90;;;;;;5012898;28;20022;-71
2021/08/16 04:20:16;;;;;;;7.68;6.88;;;26.90;99.90;;;;;;5012061;28;20164;-69
2021/08/16 04:22:43;;;;;;;7.15;6.45;;;26.90;99.90;;;;;;5013387;28;20030;-71
2021/08/16 04:25:11;;;;;;;8.48;7.13;;;26.90;99.90;;;;;;5012246;28;20488;-69
2021/08/16 04:27:41;;;;;;;17.98;7.78;;;26.90;99.90;;;;;;5013116;28;20036;-68
2021/08/16 04:30:08;;;;;;;8.95;7.78;;;26.80;99.90;;;;;;5012014;28;20061;-70
2021/08/16 04:32:35;;;;;;;11.73;7.30;;;26.80;99.90;;;;;;5012254;28;20088;-69
2021/08/16 04:35:00;;;;;;;10.45;7.05;;;26.80;99.90;;;;;;5013143;28;20301;-70
2021/08/16 04:37:26;;;;;;;8.52;6.60;;;26.80;99.90;;;;;;5013416;28;20029;-70
2021/08/16 04:39:52;;;;;;;10.32;6.72;;;26.70;99.90;;;;;;5011452;28;20032;-68
2021/08/16 04:42:18;;;;;;;11.93;8.13;;;26.70;99.90;;;;;;5013126;28;20101;-69
2021/08/16 04:44:44;;;;;;;6.95;6.38;;;26.70;99.90;;;;;;5011825;28;20033;-70
2021/08/16 04:47:10;;;;;;;8.48;6.72;;;26.70;99.90;;;;;;5012916;28;20435;-70
2021/08/16 04:49:36;;;;;;;11.48;6.68;;;26.70;99.90;;;;;;5012626;28;20080;-69
2021/08/16 04:52:02;;;;;;;7.43;6.07;;;26.70;99.90;;;;;;5012181;28;20535;-69
2021/08/16 04:54:28;;;;;;;9.30;7.38;;;26.60;99.90;;;;;;5013035;28;20128;-70
2021/08/16 04:56:54;;;;;;;9.25;7.28;;;26.60;99.90;;;;;;5011560;28;20028;-70
2021/08/16 04:59:19;;;;;;;10.25;6.88;;;26.70;99.90;;;;;;5012105;28;20026;-70
2021/08/16 05:01:48;;;;;;;11.52;7.45;;;26.70;99.90;;;;;;5011963;28;20037;-71
2021/08/16 05:04:13;;;;;;;9.70;6.95;;;26.70;99.90;;;;;;5012437;28;20318;-69
2021/08/16 05:06:42;;;;;;;12.50;6.47;;;26.60;99.90;;;;;;5012378;28;20092;-72
2021/08/16 05:09:09;;;;;;;10.15;6.55;;;26.70;99.90;;;;;;5012471;28;20039;-69
2021/08/16 05:11:35;;;;;;;15.40;7.97;;;26.70;99.90;;;;;;5011220;28;20099;-70
2021/08/16 05:14:01;;;;;;;12.43;7.35;;;26.90;99.90;;;;;;5011175;28;20033;-71
2021/08/16 05:16:27;;;;;;;13.63;7.75;;;26.90;99.90;;;;;;5011027;28;20030;-69
2021/08/16 05:18:55;;;;;;;8.15;7.18;;;26.90;99.90;;;;;;5012287;28;20048;-69
2021/08/16 05:21:22;;;;;;;12.95;8.30;;;27.00;99.90;;;;;;5012721;28;20103;-68
2021/08/16 05:23:48;;;;;;;13.23;8.90;;;27.00;99.90;;;;;;5010917;28;20480;-71
2021/08/16 05:26:14;;;;;;;10.48;7.68;;;27.00;99.90;;;;;;5012385;28;20026;-71
2021/08/16 05:28:41;;;;;;;14.38;8.57;;;27.00;99.90;;;;;;5010344;28;20034;-69
2021/08/16 05:31:07;;;;;;;17.67;8.95;;;27.10;99.90;;;;;;5011181;28;20033;-69
2021/08/16 05:33:33;;;;;;;15.52;8.65;;;27.10;99.90;;;;;;5011447;28;20392;-69
2021/08/16 05:35:59;;;;;;;10.23;7.68;;;27.20;99.90;;;;;;5012736;28;20022;-69
2021/08/16 05:38:24;;;;;;;15.15;8.45;;;27.30;99.90;;;;;;5012967;28;20040;-71
2021/08/16 05:40:53;;;;;;;16.23;8.07;;;27.40;99.90;;;;;;5013846;28;20030;-71
2021/08/16 05:43:22;;;;;;;18.60;8.70;;;27.50;99.90;;;;;;5013066;28;20061;-70
2021/08/16 05:45:48;;;;;;;10.55;8.77;;;27.60;99.90;;;;;;5010901;28;20392;-70
2021/08/16 05:48:17;;;;;;;10.65;8.60;;;27.70;99.90;;;;;;5010490;28;20030;-72
2021/08/16 05:50:43;;;;;;;13.20;7.78;;;27.90;99.90;;;;;;5012025;28;20017;-71
2021/08/16 05:53:09;;;;;;;9.70;8.50;;;28.00;99.90;;;;;;5011561;28;20018;-70
2021/08/16 05:55:35;;;;;;;12.43;8.27;;;28.10;99.90;;;;;;5011703;28;20050;-71
2021/08/16 05:58:01;;;;;;;12.32;7.97;;;28.20;99.90;;;;;;5009827;28;20026;-69
2021/08/16 06:00:26;;;;;;;11.32;7.93;;;28.20;99.90;;;;;;5011597;28;20038;-72
2021/08/16 06:02:52;;;;;;;13.05;8.80;;;28.30;99.90;;;;;;5011510;28;20033;-69
2021/08/16 06:05:18;;;;;;;15.30;9.30;;;28.20;99.90;;;;;;5011490;28;20026;-69
2021/08/16 06:07:44;;;;;;;17.08;7.95;;;28.30;99.90;;;;;;5009749;28;20026;-70
2021/08/16 06:10:10;;;;;;;14.73;7.63;;;28.30;99.90;;;;;;5011206;28;20476;-70
2021/08/16 06:12:36;;;;;;;12.27;7.40;;;28.40;99.90;;;;;;5011578;28;20018;-70
2021/08/16 06:15:03;;;;;;;12.13;7.53;;;28.50;99.90;;;;;;5010001;28;20028;-69
2021/08/16 06:17:29;;;;;;;13.77;9.02;;;28.50;99.90;;;;;;5011370;28;20064;-69
2021/08/16 06:19:55;;;;;;;9.73;8.57;;;28.60;99.90;;;;;;5011104;28;20395;-69
2021/08/16 06:22:21;;;;;;;15.23;7.78;;;28.60;99.90;;;;;;5009617;28;20034;-70
2021/08/16 06:24:47;;;;;;;15.77;8.73;;;28.60;99.90;;;;;;5009717;28;20030;-70
2021/08/16 06:27:13;;;;;;;13.75;7.35;;;28.70;99.90;;;;;;5011139;28;20518;-69
2021/08/16 06:29:38;;;;;;;9.85;6.78;;;28.90;99.90;;;;;;5011235;28;20091;-70
2021/08/16 06:32:04;;;;;;;14.85;8.63;;;28.80;99.90;;;;;;5010953;28;20014;-68
2021/08/16 06:34:30;;;;;;;14.88;7.47;;;28.90;99.90;;;;;;5011060;28;20101;-70
2021/08/16 06:36:56;;;;;;;12.25;7.40;;;28.80;99.90;;;;;;5009697;28;20097;-70
2021/08/16 06:39:24;;;;;;;9.13;6.97;;;28.90;99.90;;;;;;5011023;28;20452;-69
2021/08/16 06:41:52;;;;;;;8.07;7.28;;;28.90;99.90;;;;;;5011043;28;20022;-69
2021/08/16 06:44:20;;;;;;;11.18;7.68;;;28.90;99.90;;;;;;5009430;28;20034;-71
2021/08/16 06:46:46;;;;;;;9.00;7.53;;;29.00;99.90;;;;;;5010956;28;20026;-69
2021/08/16 06:49:13;;;;;;;11.38;7.28;;;29.20;99.90;;;;;;5010436;28;20033;-70
2021/08/16 06:51:39;;;;;;;8.57;7.72;;;29.40;99.90;;;;;;5009480;28;20117;-70
2021/08/16 06:54:05;;;;;;;17.42;6.22;;;29.40;99.90;;;;;;5011087;28;20151;-70
2021/08/16 06:56:31;;;;;;;9.45;6.78;;;29.50;99.90;;;;;;5009566;28;20065;-68
2021/08/16 06:58:57;;;;;;;10.10;6.75;;;29.60;99.90;;;;;;5009430;28;20034;-70
2021/08/16 07:01:25;;;;;;;15.50;7.20;;;29.80;99.90;;;;;;5011199;28;20029;-70
2021/08/16 07:03:52;;;;;;;8.07;6.97;;;29.90;99.90;;;;;;5011168;28;20104;-71
2021/08/16 07:06:18;;;;;;;11.68;6.10;;;30.00;99.90;;;;;;5009604;28;20435;-69
2021/08/16 07:08:44;;;;;;;9.98;6.32;;;30.10;99.90;;;;;;5009149;28;20029;-69
2021/08/16 07:11:10;;;;;;;8.52;6.68;;;30.30;99.90;;;;;;5010786;28;20384;-69
2021/08/16 07:13:36;;;;;;;12.40;6.90;;;30.50;99.90;;;;;;5010755;28;20052;-69
2021/08/16 07:16:02;;;;;;;14.18;12.00;;;30.70;99.90;;;;;;5013763;28;20534;-69
2021/08/16 07:18:27;;;;;;;15.60;8.02;;;30.70;99.90;;;;;;5014376;28;20054;-69
2021/08/16 07:20:53;;;;;;;7.05;6.35;;;30.70;99.90;;;;;;5013488;28;20030;-70
2021/08/16 07:23:20;;;;;;;7.22;5.72;;;30.80;99.90;;;;;;5014627;28;20108;-70
2021/08/16 07:25:47;;;;;;;12.52;6.60;;;30.80;99.90;;;;;;5014650;28;20037;-69
2021/08/16 07:28:13;;;;;;;9.38;6.88;;;30.80;99.90;;;;;;5015406;28;20052;-70
2021/08/16 07:30:39;;;;;;;12.32;6.40;;;31.00;99.90;;;;;;5014092;28;20022;-68
2021/08/16 07:33:05;;;;;;;8.02;6.90;;;31.00;99.90;;;;;;5014705;28;20092;-70
2021/08/16 07:35:30;;;;;;;12.50;6.78;;;31.10;99.90;;;;;;5014858;28;20033;-69
2021/08/16 07:37:57;;;;;;;15.15;6.75;;;31.10;99.90;;;;;;5014426;28;20018;-70
2021/08/16 07:40:23;;;;;;;10.25;6.78;;;31.20;99.90;;;;;;5014844;28;20030;-70
2021/08/16 07:42:49;;;;;;;8.73;6.50;;;31.10;99.90;;;;;;5012944;28;20109;-70
2021/08/16 07:45:15;;;;;;;17.25;7.05;;;31.20;99.90;;;;;;5014088;28;20480;-69
2021/08/16 07:47:41;;;;;;;14.05;7.28;;;31.10;99.90;;;;;;5014031;28;20504;-70
2021/08/16 07:50:12;;;;;;;11.65;5.80;;;31.10;99.90;;;;;;5013974;28;20033;-70
2021/08/16 07:52:39;;;;;;;11.93;6.18;;;31.20;99.90;;;;;;5014334;28;20022;-73
2021/08/16 07:55:06;;;;;;;11.98;6.47;;;31.20;99.90;;;;;;5014094;28;20112;-70
2021/08/16 07:57:32;;;;;;;14.40;6.63;;;31.20;99.90;;;;;;5012043;28;20117;-69
2021/08/16 08:00:01;;;;;;;11.13;6.53;;;31.20;99.90;;;;;;5012488;28;20126;-69
2021/08/16 08:02:41;;;;;;;12.40;6.15;;;31.20;99.90;;;;;;5013852;28;20431;-70
2021/08/16 08:05:08;;;;;;;12.02;6.35;;;31.00;99.90;;;;;;5013078;28;20194;-69
2021/08/16 08:07:34;;;;;;;11.70;7.57;;;31.00;99.90;;;;;;5012213;28;20335;-71
2021/08/16 08:10:00;;;;;;;9.07;7.25;;;31.00;99.90;;;;;;5014060;28;20029;-68
2021/08/16 08:12:26;;;;;;;9.80;6.65;;;31.00;99.90;;;;;;5014239;28;20459;-70
2021/08/16 08:14:51;;;;;;;12.98;6.45;;;31.10;99.90;;;;;;5013858;28;20026;-70
2021/08/16 08:17:17;;;;;;;9.57;5.95;;;31.20;99.90;;;;;;5013778;28;20024;-69
2021/08/16 08:19:43;;;;;;;8.57;6.50;;;31.30;99.90;;;;;;5013442;28;20022;-69
2021/08/16 08:22:09;;;;;;;8.65;6.07;;;31.30;99.90;;;;;;5013774;28;20120;-69
2021/08/16 08:24:34;;;;;;;11.77;6.95;;;31.40;99.90;;;;;;5013492;28;20081;-70
2021/08/16 08:27:00;;;;;;;17.50;7.18;;;31.50;99.90;;;;;;5013989;28;20113;-71
2021/08/16 08:29:26;;;;;;;15.70;6.18;;;31.50;99.90;;;;;;5013843;28;20092;-69
2021/08/16 08:31:51;;;;;;;16.10;5.95;;;31.60;99.90;;;;;;5013986;28;20344;-69
2021/08/16 08:34:17;;;;;;;16.27;7.18;;;31.60;99.90;;;;;;5013685;28;20503;-69
2021/08/16 08:36:44;;;;;;;14.50;6.47;;;31.70;99.90;;;;;;5014044;28;20429;-71
2021/08/16 08:39:11;;;;;;;11.68;6.53;;;31.70;99.90;;;;;;5014707;28;20345;-69
2021/08/16 08:41:37;;;;;;;11.70;6.75;;;31.80;99.90;;;;;;5013600;28;20439;-69
2021/08/16 08:44:09;;;;;;;18.90;7.93;;;31.80;99.90;;;;;;5012442;28;20033;-69
2021/08/16 08:46:38;;;;;;;14.70;6.78;;;31.80;99.90;;;;;;5013961;28;20148;-68
2021/08/16 08:49:04;;;;;;;15.95;7.35;;;31.90;99.90;;;;;;5013432;28;20022;-69
2021/08/16 08:51:30;;;;;;;24.15;8.23;;;32.00;99.90;;;;;;5011762;28;20080;-69
2021/08/16 08:53:56;;;;;;;19.20;7.10;;;32.00;99.90;;;;;;5013322;28;20029;-69
2021/08/16 08:56:22;;;;;;;32.40;8.68;;;31.90;99.90;;;;;;5012228;28;20070;-69
2021/08/16 08:58:48;;;;;;;23.13;7.15;;;32.00;99.90;;;;;;5011842;28;20041;-69
2021/08/16 09:01:14;;;;;;;14.38;6.75;;;32.10;99.90;;;;;;5011581;28;20030;-69
2021/08/16 09:03:50;;;;;;;22.95;7.30;;;32.40;99.90;;;;;;5012972;28;20448;-69
2021/08/16 09:06:34;;;;;;;24.98;8.02;;;32.90;99.90;;;;;;5013298;28;20025;-69
2021/08/16 09:09:00;;;;;;;16.50;8.80;;;33.20;99.90;;;;;;5011108;28;20122;-68
2021/08/16 09:11:29;;;;;;;26.15;8.13;;;33.10;99.90;;;;;;5012639;28;20097;-70
2021/08/16 09:13:57;;;;;;;24.35;7.57;;;33.30;99.90;;;;;;5012558;28;20180;-69
2021/08/16 09:16:28;;;;;;;22.23;9.32;;;33.40;99.90;;;;;;5011179;28;20062;-69
2021/08/16 09:18:55;;;;;;;18.88;7.80;;;33.40;99.90;;;;;;5012136;28;20057;-68
2021/08/16 09:21:35;;;;;;;25.52;7.38;;;33.40;99.90;;;;;;5012457;28;20626;-69
2021/08/16 09:24:02;;;;;;;24.75;8.52;;;33.30;99.90;;;;;;5012861;28;20407;-70
2021/08/16 09:26:33;;;;;;;17.15;8.25;;;33.20;99.90;;;;;;5011408;28;20392;-69
2021/08/16 09:29:12;;;;;;;21.38;8.80;;;33.00;99.90;;;;;;5014146;28;20104;-68
2021/08/16 09:32:02;;;;;;;15.73;8.60;;;32.90;99.90;;;;;;5014023;28;20033;-70
2021/08/16 09:34:32;;;;;;;18.38;7.60;;;32.80;99.90;;;;;;5014114;28;20072;-69
2021/08/16 09:37:02;;;;;;;26.25;8.02;;;32.60;99.90;;;;;;5011118;28;20022;-70
2021/08/16 09:39:31;;;;;;;21.00;8.43;;;32.50;99.90;;;;;;5011814;28;20455;-69
2021/08/16 09:42:02;;;;;;;18.73;8.20;;;32.60;99.90;;;;;;5012425;28;20026;-70
2021/08/16 09:44:29;;;;;;;19.70;7.80;;;32.60;99.90;;;;;;5010495;28;20030;-69
2021/08/16 09:47:01;;;;;;;26.95;8.20;;;32.50;99.90;;;;;;5010570;28;20033;-69
2021/08/16 09:49:27;;;;;;;32.92;10.38;;;32.60;99.90;;;;;;5010152;28;20488;-69
2021/08/16 09:52:02;;;;;;;29.30;8.32;;;32.60;99.90;;;;;;5011703;28;20037;-69
2021/08/16 09:54:28;;;;;;;25.67;9.18;;;32.70;99.90;;;;;;5010813;28;20115;-69
2021/08/16 09:56:55;;;;;;;26.80;10.15;;;32.80;99.90;;;;;;5011873;28;20388;-69
2021/08/16 09:59:21;;;;;;;19.13;8.80;;;32.80;99.90;;;;;;5010472;28;20030;-69
2021/08/16 10:01:47;;;;;;;23.45;7.80;;;32.80;99.90;;;;;;5010479;28;20026;-69
2021/08/16 10:04:13;;;;;;;27.25;8.75;;;32.80;99.90;;;;;;5011744;28;20053;-69
2021/08/16 10:06:40;;;;;;;27.13;9.23;;;32.80;99.90;;;;;;5011467;28;20472;-69
2021/08/16 10:09:09;;;;;;;23.23;9.82;;;32.90;99.90;;;;;;5010105;28;20026;-69
2021/08/16 10:11:38;;;;;;;22.73;9.63;;;33.00;99.90;;;;;;5010439;28;20257;-68
2021/08/16 10:14:03;;;;;;;27.77;8.77;;;33.00;99.90;;;;;;5011570;28;20018;-69
2021/08/16 10:16:37;;;;;;;20.58;11.73;;;33.00;99.90;;;;;;5011947;28;20029;-68
2021/08/16 10:19:14;;;;;;;22.63;9.88;;;33.00;99.90;;;;;;5009877;28;20030;-69
2021/08/16 10:21:41;;;;;;;19.58;9.88;;;33.10;99.90;;;;;;5011053;28;20107;-70
2021/08/16 10:24:23;;;;;;;19.23;9.07;;;33.20;99.90;;;;;;5010041;28;20033;-69
2021/08/16 10:27:08;;;;;;;28.38;11.05;;;33.20;99.90;;;;;;5011416;28;20029;-69
2021/08/16 10:29:36;;;;;;;22.30;9.10;;;33.30;99.90;;;;;;5011225;28;20504;-70
2021/08/16 10:32:02;;;;;;;21.50;10.07;;;33.50;99.90;;;;;;5011258;28;20049;-68
2021/08/16 10:34:35;;;;;;;21.98;10.20;;;33.50;99.90;;;;;;5010335;28;20026;-70
2021/08/16 10:37:04;;;;;;;22.85;8.45;;;33.50;99.90;;;;;;5011429;28;20018;-69
2021/08/16 10:39:41;;;;;;;15.05;8.18;;;33.00;99.90;;;;;;5009351;28;20079;-69
2021/08/16 10:42:09;;;;;;;13.27;8.23;;;32.70;99.90;;;;;;5009708;28;20026;-70
2021/08/16 10:44:46;;;;;;;20.85;8.48;;;32.60;99.90;;;;;;5010968;28;20489;-69
2021/08/16 10:47:34;;;;;;;13.23;8.48;;;32.60;99.90;;;;;;5010835;28;20022;-69
2021/08/16 10:50:05;;;;;;;24.15;9.57;;;32.40;99.90;;;;;;5010356;28;20028;-69
2021/08/16 10:52:32;;;;;;;14.57;8.27;;;32.30;99.90;;;;;;5010931;28;20021;-69
2021/08/16 10:55:12;;;;;;;23.75;8.43;;;32.10;99.90;;;;;;5009485;28;20029;-70
2021/08/16 10:57:39;;;;;;;12.93;7.32;;;31.60;99.90;;;;;;5010625;28;20044;-70
2021/08/16 11:00:07;;;;;;;17.92;8.95;;;31.30;99.90;;;;;;5009442;28;20100;-69
2021/08/16 11:02:33;;;;;;;25.02;8.77;;;31.40;99.90;;;;;;5009424;28;20480;-69
2021/08/16 11:04:59;;;;;;;21.30;8.05;;;31.30;99.90;;;;;;5009596;28;20047;-69
2021/08/16 11:07:26;;;;;;;16.77;9.07;;;31.30;99.90;;;;;;5010871;28;20026;-69
2021/08/16 11:09:57;;;;;;;12.10;7.65;;;31.10;99.90;;;;;;5010465;28;20029;-70
2021/08/16 11:12:32;;;;;;;23.35;8.70;;;31.30;99.90;;;;;;5010563;28;20026;-69
2021/08/16 11:14:58;;;;;;;25.88;8.25;;;31.20;99.90;;;;;;5009040;28;20119;-69
2021/08/16 11:17:26;;;;;;;16.27;8.05;;;31.10;99.90;;;;;;5010510;28;20577;-70
2021/08/16 11:19:55;;;;;;;15.85;7.47;;;31.00;99.90;;;;;;5010580;28;20100;-69
2021/08/16 11:22:20;;;;;;;14.30;8.35;;;31.10;99.90;;;;;;5010578;28;20104;-69
2021/08/16 11:24:47;;;;;;;21.42;8.20;;;31.20;99.90;;;;;;5010622;28;20038;-70
2021/08/16 11:27:27;;;;;;;14.60;8.13;;;31.40;99.90;;;;;;5011116;28;20084;-70
2021/08/16 11:30:01;;;;;;;13.65;7.20;;;31.60;99.90;;;;;;5011630;28;20392;-70
2021/08/16 11:32:29;;;;;;;16.48;7.43;;;31.60;99.90;;;;;;5011099;28;20268;-72
2021/08/16 11:34:56;;;;;;;19.40;8.20;;;31.70;99.90;;;;;;5011164;28;20022;-70
2021/08/16 11:37:28;;;;;;;20.95;8.73;;;31.50;99.90;;;;;;5009903;28;20026;-69
2021/08/16 11:39:55;;;;;;;15.60;7.72;;;31.50;99.90;;;;;;5011018;28;20373;-70
2021/08/16 11:42:22;;;;;;;21.20;9.10;;;31.50;99.90;;;;;;5009487;28;20094;-71
2021/08/16 11:44:59;;;;;;;21.75;9.95;;;31.50;99.90;;;;;;5009133;28;20113;-69
2021/08/16 11:47:35;;;;;;;18.27;9.10;;;31.50;99.90;;;;;;5009615;28;20103;-70
2021/08/16 11:50:09;;;;;;;26.58;9.27;;;31.40;99.90;;;;;;5009562;28;20583;-69
2021/08/16 11:52:35;;;;;;;22.85;9.13;;;31.40;99.90;;;;;;5010771;28;20495;-71
2021/08/16 11:55:05;;;;;;;20.70;9.23;;;31.50;99.90;;;;;;5009478;28;20120;-71
2021/08/16 11:57:32;;;;;;;20.27;9.27;;;31.50;99.90;;;;;;5009189;28;20061;-70
2021/08/16 11:59:58;;;;;;;28.77;9.77;;;31.60;99.90;;;;;;5010821;28;20085;-71
2021/08/16 12:02:30;;;;;;;33.92;9.32;;;31.70;99.90;;;;;;5013612;28;20068;-69
2021/08/16 12:04:58;;;;;;;17.67;8.20;;;31.70;99.90;;;;;;5012591;28;20132;-69
2021/08/16 12:07:26;;;;;;;27.83;8.68;;;31.90;99.90;;;;;;5013967;28;20026;-70
2021/08/16 12:09:53;;;;;;;32.95;9.55;;;32.10;99.90;;;;;;5012450;28;20109;-69
2021/08/16 12:12:21;;;;;;;19.70;8.68;;;32.00;99.90;;;;;;5012667;28;20022;-70
2021/08/16 12:15:05;;;;;;;31.08;9.13;;;32.10;99.90;;;;;;5012286;28;20029;-70
2021/08/16 12:17:32;;;;;;;34.13;10.02;;;32.20;99.90;;;;;;5012248;28;20321;-70
2021/08/16 12:20:07;;;;;;;29.92;9.23;;;32.20;99.90;;;;;;5012245;28;20057;-69
2021/08/16 12:22:45;;;;;;;35.85;12.07;;;32.30;99.90;;;;;;5012301;28;20034;-69
2021/08/16 12:25:11;;;;;;;28.30;8.68;;;32.40;99.90;;;;;;5012259;28;20626;-71
2021/08/16 12:27:37;;;;;;;30.23;9.07;;;32.60;99.90;;;;;;5011921;28;20607;-70
2021/08/16 12:30:15;;;;;;;23.73;8.68;;;32.60;99.90;;;;;;5012013;28;20112;-70
2021/08/16 12:32:41;;;;;;;30.35;9.07;;;32.70;99.90;;;;;;5013759;28;20021;-69
2021/08/16 12:35:18;;;;;;;31.10;9.45;;;32.70;99.90;;;;;;5013537;28;20374;-69
2021/08/16 12:37:44;;;;;;;32.80;10.05;;;32.80;99.90;;;;;;5013155;28;20026;-71
2021/08/16 12:40:18;;;;;;;23.65;9.18;;;32.80;99.90;;;;;;5011962;28;20561;-69
2021/08/16 12:42:55;;;;;;;29.55;9.90;;;32.90;99.90;;;;;;5013744;28;20069;-69